Time;durP1;ratioP1;P1;durP2;ratioP2;P2;SDS_P1;SDS_P2;PMS_P1;PMS_P2;Temp;Humidity;BMP_temperature;BMP_pressure;BME280_temperature;BME280_humidity;BME280_pressure;Samples;Min_cycle;Max_cycle;Signal;HPM_P1;HPM_P2
2022/01/23 00:00:51;;;;;;;31.63;21.40;;;5.30;99.90;;;;;;625138;225;26562;-74
2022/01/23 00:03:18;;;;;;;31.67;18.93;;;5.30;99.90;;;;;;629259;225;26618;-74
2022/01/23 00:05:44;;;;;;;29.57;18.90;;;5.50;99.90;;;;;;630082;225;26572;-74
2022/01/23 00:08:13;;;;;;;25.37;17.90;;;5.40;99.90;;;;;;633405;225;27113;-74
2022/01/23 00:10:38;;;;;;;27.60;17.47;;;5.30;99.90;;;;;;628929;226;26629;-74
2022/01/23 00:13:09;;;;;;;23.10;15.50;;;5.20;99.90;;;;;;631616;226;26816;-74
2022/01/23 00:18:06;;;;;;;25.10;17.60;;;5.30;99.90;;;;;;632877;226;26812;-74
2022/01/23 00:20:33;;;;;;;27.53;17.30;;;5.30;99.90;;;;;;627567;226;26795;-73
2022/01/23 00:23:11;;;;;;;26.70;17.27;;;5.30;99.90;;;;;;630844;225;26584;-75
2022/01/23 00:30:34;;;;;;;20.73;15.87;;;5.30;99.90;;;;;;634565;225;26605;-74
2022/01/23 00:33:02;;;;;;;22.27;16.87;;;5.50;99.90;;;;;;631317;226;26574;-74
2022/01/23 00:35:29;;;;;;;24.13;17.33;;;5.50;99.90;;;;;;635474;225;26586;-74
2022/01/23 00:37:56;;;;;;;23.40;16.23;;;5.70;99.90;;;;;;634206;225;26569;-74
2022/01/23 00:40:23;;;;;;;23.87;16.37;;;5.50;99.90;;;;;;634812;225;26853;-74
2022/01/23 00:42:53;;;;;;;21.90;15.53;;;5.80;99.90;;;;;;630405;225;26594;-74
2022/01/23 00:45:28;;;;;;;24.30;15.10;;;5.50;99.90;;;;;;625451;229;26916;-74
2022/01/23 00:47:55;;;;;;;23.37;16.33;;;5.50;99.90;;;;;;625729;228;26588;-74
2022/01/23 00:50:20;;;;;;;21.10;16.13;;;5.70;99.90;;;;;;632202;225;26567;-73
2022/01/23 00:52:47;;;;;;;19.63;14.77;;;5.70;99.90;;;;;;630613;225;26595;-74
2022/01/23 00:55:15;;;;;;;22.63;15.47;;;5.90;99.90;;;;;;628746;226;26574;-74
2022/01/23 00:57:42;;;;;;;21.70;14.23;;;5.90;99.90;;;;;;630602;225;26819;-74
2022/01/23 01:00:09;;;;;;;20.90;15.00;;;5.90;99.90;;;;;;634749;226;26528;-74
2022/01/23 01:02:36;;;;;;;21.73;14.93;;;5.90;99.90;;;;;;632001;226;26847;-74
2022/01/23 01:05:04;;;;;;;19.60;13.47;;;5.80;99.90;;;;;;626767;229;26535;-74
2022/01/23 01:07:31;;;;;;;22.10;14.03;;;5.60;99.90;;;;;;631717;225;26582;-74
2022/01/23 01:10:04;;;;;;;20.90;15.17;;;5.60;99.90;;;;;;633745;226;27277;-74
2022/01/23 01:12:34;;;;;;;17.13;13.37;;;5.60;99.90;;;;;;627837;226;26627;-74
2022/01/23 01:15:21;;;;;;;16.33;12.53;;;5.60;99.90;;;;;;627292;226;26778;-74
2022/01/23 01:17:38;;;;;;;14.87;11.20;;;5.50;99.90;;;;;;625772;226;27279;-74
2022/01/23 01:32:53;;;;;;;12.87;10.07;;;5.60;99.90;;;;;;629892;225;26579;-74
2022/01/23 01:35:17;;;;;;;13.83;9.70;;;5.80;99.90;;;;;;627188;227;26826;-74
2022/01/23 01:37:33;;;;;;;13.87;10.13;;;5.70;99.90;;;;;;626558;225;26555;-74
2022/01/23 01:40:01;;;;;;;13.10;9.73;;;5.70;99.90;;;;;;626442;226;26895;-74
2022/01/23 01:42:28;;;;;;;16.30;9.67;;;5.70;99.90;;;;;;634001;225;26853;-74
2022/01/23 01:44:56;;;;;;;14.03;10.17;;;5.80;99.90;;;;;;626309;226;26594;-74
2022/01/23 01:47:23;;;;;;;12.37;9.43;;;5.90;99.90;;;;;;625860;228;27219;-74
2022/01/23 01:49:51;;;;;;;14.33;9.87;;;6.20;99.90;;;;;;628433;226;26585;-74
2022/01/23 01:52:19;;;;;;;13.20;9.87;;;6.10;99.90;;;;;;631846;225;26597;-74
2022/01/23 01:54:48;;;;;;;11.77;8.33;;;6.00;99.90;;;;;;632514;226;26538;-74
2022/01/23 01:57:14;;;;;;;11.73;8.83;;;5.70;99.90;;;;;;631854;226;26593;-74
2022/01/23 02:00:00;;;;;;;13.80;8.83;;;5.70;99.90;;;;;;635281;226;27249;-74
2022/01/23 02:09:51;;;;;;;12.53;8.47;;;5.60;99.90;;;;;;628698;226;26527;-73
2022/01/23 02:15:15;;;;;;;11.00;9.20;;;5.70;99.90;;;;;;633175;226;26591;-74
2022/01/23 02:51:01;;;;;;;10.87;8.53;;;5.60;99.90;;;;;;632561;226;26614;-74
2022/01/23 02:53:36;;;;;;;11.03;8.60;;;5.70;99.90;;;;;;630674;225;26591;-73
2022/01/23 02:55:56;;;;;;;9.87;7.90;;;5.70;99.90;;;;;;635693;225;26533;-73
2022/01/23 02:58:25;;;;;;;10.67;8.00;;;5.70;99.90;;;;;;627004;226;26888;-73
2022/01/23 03:01:06;;;;;;;12.53;8.83;;;5.90;99.90;;;;;;628914;226;26565;-73
2022/01/23 03:03:24;;;;;;;10.80;7.90;;;5.80;99.90;;;;;;627693;226;26875;-74
2022/01/23 03:05:46;;;;;;;9.90;8.50;;;5.90;99.90;;;;;;628251;226;26578;-74
2022/01/23 03:10:57;;;;;;;10.60;8.37;;;5.70;99.90;;;;;;627377;226;27065;-73
2022/01/23 03:16:12;;;;;;;10.00;7.73;;;5.60;99.90;;;;;;628055;228;26836;-74
2022/01/23 03:26:32;;;;;;;11.30;7.70;;;5.90;99.90;;;;;;634223;226;26580;-73
2022/01/23 03:29:00;;;;;;;10.07;7.77;;;5.80;99.90;;;;;;628916;225;26634;-73
2022/01/23 03:31:21;;;;;;;9.87;6.83;;;5.80;99.90;;;;;;624796;226;26563;-74
2022/01/23 03:33:36;;;;;;;8.10;6.77;;;5.50;99.90;;;;;;630368;226;26621;-73
2022/01/23 03:36:03;;;;;;;7.70;6.57;;;5.50;99.90;;;;;;634305;226;26531;-73
2022/01/23 03:38:31;;;;;;;9.43;6.90;;;5.40;99.90;;;;;;627560;226;26595;-73
2022/01/23 03:40:58;;;;;;;9.87;7.87;;;5.50;99.90;;;;;;626092;229;26554;-73
2022/01/23 03:43:30;;;;;;;8.77;7.80;;;5.50;99.90;;;;;;631637;225;26848;-74
2022/01/23 03:46:22;;;;;;;7.77;6.93;;;5.60;99.90;;;;;;626200;229;26587;-73
2022/01/23 03:51:07;;;;;;;8.57;6.53;;;5.70;99.90;;;;;;625451;225;26797;-73
2022/01/23 03:53:35;;;;;;;8.57;7.00;;;5.60;99.90;;;;;;633290;226;26614;-73
2022/01/23 03:56:03;;;;;;;8.00;6.93;;;5.50;99.90;;;;;;633232;224;26622;-74
2022/01/23 03:58:30;;;;;;;8.20;7.13;;;5.50;99.90;;;;;;633475;223;26575;-73
2022/01/23 04:00:57;;;;;;;8.87;7.40;;;5.30;99.90;;;;;;630909;225;26809;-73
2022/01/23 04:03:25;;;;;;;9.17;7.50;;;5.30;99.90;;;;;;633109;225;26598;-73
2022/01/23 04:05:52;;;;;;;9.53;7.70;;;5.40;99.90;;;;;;627088;228;26576;-73
2022/01/23 04:08:20;;;;;;;7.67;6.50;;;5.50;99.90;;;;;;627025;226;26590;-73
2022/01/23 04:10:47;;;;;;;8.50;6.73;;;5.50;99.90;;;;;;627000;228;26874;-74
2022/01/23 04:13:17;;;;;;;8.43;7.53;;;5.40;99.90;;;;;;633011;225;26541;-73
2022/01/23 04:15:51;;;;;;;9.10;7.43;;;5.80;99.90;;;;;;626071;225;26627;-74
2022/01/23 04:18:59;;;;;;;8.83;7.57;;;5.80;99.90;;;;;;627355;225;26592;-74
2022/01/23 04:20:50;;;;;;;8.43;7.07;;;5.80;99.90;;;;;;626869;228;26748;-73
2022/01/23 04:33:30;;;;;;;12.30;7.87;;;5.80;99.90;;;;;;633784;225;26591;-73
2022/01/23 04:47:12;;;;;;;9.97;8.33;;;5.40;99.90;;;;;;627083;229;26594;-73
2022/01/23 04:49:07;;;;;;;10.50;7.33;;;5.50;99.90;;;;;;628721;226;26829;-74
2022/01/23 04:59:34;;;;;;;10.20;7.50;;;5.60;99.90;;;;;;625477;229;26831;-73
2022/01/23 05:01:57;;;;;;;10.13;7.23;;;5.60;99.90;;;;;;629467;226;26621;-73
2022/01/23 05:04:16;;;;;;;11.90;8.43;;;6.00;99.90;;;;;;633785;226;26575;-73
2022/01/23 05:06:56;;;;;;;9.43;7.87;;;6.00;99.90;;;;;;630179;226;26789;-74
2022/01/23 05:09:13;;;;;;;9.27;7.70;;;5.90;99.90;;;;;;629251;226;26492;-73
2022/01/23 05:11:47;;;;;;;10.73;7.47;;;5.50;99.90;;;;;;632096;225;26626;-68
2022/01/23 05:14:08;;;;;;;11.40;8.00;;;5.50;99.90;;;;;;626118;228;26807;-68
2022/01/23 05:16:35;;;;;;;9.67;8.00;;;5.60;99.90;;;;;;631249;225;26598;-69
2022/01/23 05:19:02;;;;;;;12.13;7.77;;;5.40;99.90;;;;;;632994;225;26794;-69
2022/01/23 05:24:04;;;;;;;8.33;7.27;;;5.60;99.90;;;;;;630554;226;26595;-69
2022/01/23 05:26:31;;;;;;;10.00;7.40;;;6.00;99.90;;;;;;631763;226;26561;-69
2022/01/23 05:28:57;;;;;;;11.83;8.30;;;6.00;99.90;;;;;;631708;226;26557;-69
2022/01/23 05:31:25;;;;;;;9.80;7.47;;;5.90;99.90;;;;;;633193;225;26599;-69
2022/01/23 05:33:52;;;;;;;11.20;7.40;;;5.70;99.90;;;;;;631363;225;26803;-71
2022/01/23 05:36:21;;;;;;;9.27;6.83;;;5.50;99.90;;;;;;630038;225;26566;-70
2022/01/23 05:38:47;;;;;;;10.97;8.50;;;5.40;99.90;;;;;;636177;225;26934;-70
2022/01/23 05:41:14;;;;;;;14.93;9.40;;;5.40;99.90;;;;;;629179;225;26588;-70
2022/01/23 05:43:42;;;;;;;11.43;8.67;;;5.60;99.90;;;;;;627826;226;26618;-70
2022/01/23 05:46:10;;;;;;;11.37;7.80;;;5.40;99.90;;;;;;625662;226;26552;-70
2022/01/23 05:48:37;;;;;;;10.40;8.30;;;5.40;99.90;;;;;;629822;225;26835;-71
2022/01/23 05:51:06;;;;;;;10.83;8.00;;;5.50;99.90;;;;;;629017;226;26630;-70
2022/01/23 05:53:32;;;;;;;11.47;8.20;;;5.50;99.90;;;;;;630104;226;26850;-70
2022/01/23 05:55:59;;;;;;;13.70;9.10;;;5.50;99.90;;;;;;633986;225;26599;-71
2022/01/23 05:58:26;;;;;;;11.77;8.93;;;5.80;99.90;;;;;;627182;226;26884;-71
2022/01/23 06:00:54;;;;;;;12.33;9.13;;;5.60;99.90;;;;;;628612;226;26607;-70
2022/01/23 06:03:22;;;;;;;14.87;10.40;;;5.60;99.90;;;;;;633380;225;26585;-71
2022/01/23 06:05:50;;;;;;;11.37;8.70;;;5.70;99.90;;;;;;633679;225;26530;-70
2022/01/23 06:08:17;;;;;;;12.60;9.30;;;5.70;99.90;;;;;;633286;225;26644;-71
2022/01/23 06:10:53;;;;;;;13.73;10.53;;;5.70;99.90;;;;;;634647;225;26572;-70
2022/01/23 06:13:14;;;;;;;13.70;9.70;;;5.50;99.90;;;;;;630082;225;26613;-70
2022/01/23 06:15:41;;;;;;;14.23;10.13;;;5.50;99.90;;;;;;628491;226;26601;-71
2022/01/23 06:18:08;;;;;;;14.77;11.07;;;5.50;99.90;;;;;;629077;225;26583;-70
2022/01/23 06:20:36;;;;;;;14.53;10.37;;;5.60;99.90;;;;;;628197;228;26805;-70
2022/01/23 06:23:03;;;;;;;14.90;9.80;;;5.60;99.90;;;;;;629083;225;26537;-70
2022/01/23 06:25:34;;;;;;;18.00;10.43;;;5.50;99.90;;;;;;629321;226;26794;-70
2022/01/23 06:28:00;;;;;;;13.73;9.87;;;5.40;99.90;;;;;;635422;222;26608;-71
2022/01/23 06:30:27;;;;;;;14.67;10.10;;;5.40;99.90;;;;;;629363;226;26506;-71
2022/01/23 06:32:54;;;;;;;15.37;10.90;;;5.40;99.90;;;;;;634367;226;26882;-70
2022/01/23 06:35:21;;;;;;;12.43;9.00;;;5.70;99.90;;;;;;633988;226;26792;-70
2022/01/23 06:37:49;;;;;;;16.60;10.80;;;5.80;99.90;;;;;;633472;226;26578;-70
2022/01/23 06:40:16;;;;;;;17.73;11.00;;;5.70;99.90;;;;;;627203;225;26957;-71
2022/01/23 06:42:43;;;;;;;11.73;9.33;;;5.80;99.90;;;;;;626353;226;26614;-70
2022/01/23 06:45:11;;;;;;;16.60;10.87;;;5.60;99.90;;;;;;635389;225;26893;-70
2022/01/23 06:47:37;;;;;;;14.17;10.03;;;5.70;99.90;;;;;;627405;226;26599;-70
2022/01/23 06:50:05;;;;;;;18.27;10.77;;;5.50;99.90;;;;;;628443;226;26859;-70
2022/01/23 06:52:33;;;;;;;14.53;10.80;;;5.40;99.90;;;;;;633452;225;26615;-71
2022/01/23 06:55:01;;;;;;;13.93;10.73;;;5.30;99.90;;;;;;626540;228;26535;-70
2022/01/23 06:57:29;;;;;;;14.90;10.20;;;5.60;99.90;;;;;;628512;226;26658;-70
2022/01/23 06:59:57;;;;;;;16.63;10.37;;;5.50;99.90;;;;;;626069;229;26534;-70
2022/01/23 07:02:25;;;;;;;14.07;9.80;;;5.40;99.90;;;;;;628584;225;26633;-66
2022/01/23 07:04:52;;;;;;;14.20;9.90;;;5.40;99.90;;;;;;629282;226;26919;-70
2022/01/23 07:07:19;;;;;;;14.13;10.40;;;5.50;99.90;;;;;;627742;226;26591;-70
2022/01/23 07:09:46;;;;;;;12.90;9.73;;;5.50;99.90;;;;;;626286;226;26778;-71
2022/01/23 07:12:14;;;;;;;13.40;9.70;;;5.60;99.90;;;;;;630756;226;26606;-70
2022/01/23 07:14:41;;;;;;;13.80;10.10;;;5.50;99.90;;;;;;626995;226;26842;-70
2022/01/23 07:17:08;;;;;;;14.73;10.50;;;5.60;99.90;;;;;;628185;226;26567;-70
2022/01/23 07:19:35;;;;;;;13.97;10.53;;;5.70;99.90;;;;;;634381;225;26815;-70
2022/01/23 07:22:03;;;;;;;12.70;9.87;;;5.90;99.90;;;;;;630344;225;26604;-71
2022/01/23 07:24:31;;;;;;;13.90;10.63;;;5.80;99.90;;;;;;627111;229;26559;-71
2022/01/23 07:27:01;;;;;;;15.37;9.93;;;5.80;99.90;;;;;;626899;225;26605;-70
2022/01/23 07:29:25;;;;;;;11.60;9.10;;;5.80;99.90;;;;;;626693;226;26572;-71
2022/01/23 07:32:00;;;;;;;12.80;9.80;;;5.70;99.90;;;;;;627463;225;27294;-71
2022/01/23 07:34:25;;;;;;;11.70;9.10;;;5.70;99.90;;;;;;626956;225;26593;-71
2022/01/23 07:36:52;;;;;;;14.27;9.77;;;5.70;99.90;;;;;;631196;226;26815;-70
2022/01/23 07:39:19;;;;;;;13.03;9.23;;;5.60;99.90;;;;;;636238;221;26535;-70
2022/01/23 07:41:47;;;;;;;12.37;8.53;;;5.80;99.90;;;;;;632452;225;26624;-71
2022/01/23 07:44:14;;;;;;;12.93;9.43;;;5.80;99.90;;;;;;632391;226;26598;-70
2022/01/23 07:46:42;;;;;;;13.47;8.90;;;6.00;99.90;;;;;;628451;228;26579;-71
2022/01/23 07:49:10;;;;;;;11.00;8.97;;;6.00;99.90;;;;;;628006;226;27290;-70
2022/01/23 07:51:37;;;;;;;11.20;8.57;;;6.10;99.90;;;;;;629193;225;26647;-70
2022/01/23 07:54:04;;;;;;;10.80;9.10;;;5.90;99.90;;;;;;629598;225;26869;-70
2022/01/23 07:56:31;;;;;;;12.63;9.17;;;5.90;99.90;;;;;;627458;226;26559;-71
2022/01/23 07:58:58;;;;;;;9.57;8.40;;;5.90;99.90;;;;;;629157;225;26816;-71
2022/01/23 08:01:26;;;;;;;10.80;9.20;;;5.90;99.90;;;;;;630113;225;26609;-70
2022/01/23 08:03:54;;;;;;;11.10;8.77;;;5.90;99.90;;;;;;627696;225;26596;-71
2022/01/23 08:06:28;;;;;;;12.27;9.13;;;5.90;99.90;;;;;;629258;226;26543;-70
2022/01/23 08:08:49;;;;;;;11.37;9.17;;;5.90;99.90;;;;;;626670;226;26587;-70
2022/01/23 08:11:16;;;;;;;11.67;8.17;;;6.10;99.90;;;;;;627313;225;26836;-70
2022/01/23 08:13:43;;;;;;;8.77;7.80;;;6.00;99.90;;;;;;629574;223;26586;-70
2022/01/23 08:16:11;;;;;;;11.23;7.80;;;6.00;99.90;;;;;;626860;226;26938;-71
2022/01/23 08:18:38;;;;;;;8.93;8.03;;;6.10;99.90;;;;;;629900;225;26619;-71
2022/01/23 08:21:07;;;;;;;8.47;7.53;;;6.30;99.90;;;;;;627918;225;26607;-71
2022/01/23 08:23:38;;;;;;;10.53;7.87;;;6.30;99.90;;;;;;627698;225;26648;-69
2022/01/23 08:26:01;;;;;;;8.73;7.23;;;6.50;99.90;;;;;;626268;229;27191;-69
2022/01/23 08:28:29;;;;;;;9.67;7.77;;;6.70;99.90;;;;;;628236;225;26591;-68
2022/01/23 08:30:57;;;;;;;9.20;7.83;;;6.70;99.90;;;;;;631739;225;26614;-68
2022/01/23 08:33:24;;;;;;;10.57;8.07;;;6.70;99.90;;;;;;629704;226;26816;-68
2022/01/23 08:35:53;;;;;;;8.70;7.77;;;7.00;99.90;;;;;;628683;225;26593;-68
2022/01/23 08:38:20;;;;;;;7.67;6.87;;;6.80;99.90;;;;;;626845;228;26821;-69
2022/01/23 08:40:59;;;;;;;8.40;7.20;;;6.70;99.90;;;;;;628438;224;26631;-68
2022/01/23 08:43:15;;;;;;;8.20;7.40;;;6.50;99.90;;;;;;628686;226;26881;-68
2022/01/23 08:45:42;;;;;;;7.77;6.90;;;6.60;99.90;;;;;;628020;221;26843;-68
2022/01/23 08:48:09;;;;;;;7.77;6.97;;;6.60;99.90;;;;;;632943;225;26827;-68
2022/01/23 08:50:37;;;;;;;7.10;6.17;;;6.30;99.90;;;;;;627654;225;26526;-68
2022/01/23 08:53:05;;;;;;;7.87;7.07;;;6.30;99.90;;;;;;627631;225;26565;-68
2022/01/23 08:55:33;;;;;;;7.90;7.00;;;6.30;99.90;;;;;;630632;225;26589;-68
2022/01/23 08:57:59;;;;;;;6.83;6.07;;;6.60;99.90;;;;;;631513;225;26589;-68
2022/01/23 09:00:26;;;;;;;7.77;7.00;;;6.50;99.90;;;;;;629674;225;26823;-68
2022/01/23 09:02:55;;;;;;;9.07;7.23;;;6.50;99.90;;;;;;628437;226;26799;-68
2022/01/23 09:05:21;;;;;;;8.10;7.03;;;6.60;99.90;;;;;;629308;225;26826;-68
2022/01/23 09:07:49;;;;;;;6.97;6.27;;;6.70;99.90;;;;;;630092;226;26603;-68
2022/01/23 09:10:24;;;;;;;9.00;7.07;;;6.50;99.90;;;;;;630415;225;26622;-68
2022/01/23 09:12:58;;;;;;;7.77;6.77;;;6.40;99.90;;;;;;627743;226;26907;-68
2022/01/23 09:15:12;;;;;;;6.10;5.50;;;6.90;99.90;;;;;;630058;226;27212;-68
2022/01/23 09:17:39;;;;;;;7.10;6.40;;;7.10;99.90;;;;;;628186;226;26592;-68
2022/01/23 09:20:06;;;;;;;6.87;6.17;;;7.30;99.90;;;;;;631802;225;26915;-68
2022/01/23 09:22:33;;;;;;;7.20;6.50;;;7.20;99.90;;;;;;628451;225;26596;-68
2022/01/23 09:25:01;;;;;;;7.13;6.23;;;7.20;99.90;;;;;;628010;226;26583;-68
2022/01/23 09:27:29;;;;;;;7.20;5.77;;;7.20;99.90;;;;;;628180;226;26615;-68
2022/01/23 09:30:05;;;;;;;7.57;6.37;;;7.10;99.90;;;;;;629795;226;26619;-68
2022/01/23 09:32:24;;;;;;;7.97;6.17;;;7.10;99.90;;;;;;629535;225;26606;-68
2022/01/23 09:34:52;;;;;;;7.50;6.33;;;7.30;99.90;;;;;;629750;226;26795;-68
2022/01/23 09:37:20;;;;;;;7.17;6.47;;;7.00;99.90;;;;;;628551;226;26599;-68
2022/01/23 09:39:50;;;;;;;7.67;6.53;;;7.00;99.90;;;;;;628341;226;26568;-68
2022/01/23 09:42:19;;;;;;;7.23;6.53;;;7.10;99.90;;;;;;629991;225;26586;-68
2022/01/23 09:44:47;;;;;;;8.43;7.10;;;7.20;99.90;;;;;;627458;225;26603;-68
2022/01/23 09:47:14;;;;;;;7.53;6.73;;;7.40;99.90;;;;;;629625;225;27401;-68
2022/01/23 09:49:42;;;;;;;9.13;7.10;;;7.40;99.90;;;;;;630479;225;26808;-68
2022/01/23 09:52:09;;;;;;;8.20;6.57;;;7.20;99.90;;;;;;633428;225;26876;-68
2022/01/23 09:54:36;;;;;;;7.40;6.63;;;7.20;99.90;;;;;;631929;226;26559;-68
2022/01/23 09:57:03;;;;;;;8.57;6.80;;;7.20;99.90;;;;;;628170;226;26590;-68
2022/01/23 09:59:31;;;;;;;6.70;6.00;;;7.20;99.90;;;;;;632158;225;26580;-67
2022/01/23 10:01:59;;;;;;;7.07;6.37;;;7.10;99.90;;;;;;629616;225;26599;-67
2022/01/23 10:04:26;;;;;;;8.80;6.23;;;7.10;99.90;;;;;;627662;226;26820;-67
2022/01/23 10:06:53;;;;;;;8.43;6.53;;;7.20;99.90;;;;;;627705;228;26598;-68
2022/01/23 10:09:24;;;;;;;6.93;6.23;;;7.10;99.90;;;;;;628197;225;26875;-67
2022/01/23 10:11:51;;;;;;;6.80;5.90;;;7.20;99.90;;;;;;630117;225;26610;-67
2022/01/23 10:14:18;;;;;;;6.60;5.60;;;7.00;99.90;;;;;;627834;226;26799;-68
2022/01/23 10:16:45;;;;;;;6.53;5.53;;;7.10;99.90;;;;;;629165;226;26595;-67
2022/01/23 10:19:12;;;;;;;9.50;6.13;;;6.90;99.90;;;;;;628563;223;26561;-68
2022/01/23 10:21:40;;;;;;;6.83;6.13;;;7.80;99.90;;;;;;626138;227;26616;-68
2022/01/23 10:24:09;;;;;;;6.83;6.10;;;7.80;99.90;;;;;;626231;228;26572;-68
2022/01/23 10:26:39;;;;;;;6.77;6.07;;;8.30;99.90;;;;;;628789;226;26577;-68
2022/01/23 10:29:10;;;;;;;6.90;6.20;;;7.80;99.90;;;;;;632323;224;26959;-68
2022/01/23 10:31:37;;;;;;;5.90;5.40;;;7.80;99.90;;;;;;632929;225;26605;-68
2022/01/23 10:34:04;;;;;;;7.33;5.73;;;7.90;99.90;;;;;;624036;226;26600;-68
2022/01/23 10:36:32;;;;;;;6.83;6.23;;;7.70;99.90;;;;;;625362;229;26555;-71
2022/01/23 10:39:04;;;;;;;6.47;5.77;;;7.70;99.90;;;;;;627320;226;26596;-69
2022/01/23 10:41:45;;;;;;;7.00;6.30;;;7.50;99.90;;;;;;629500;225;26617;-69
2022/01/23 10:46:55;;;;;;;6.23;5.63;;;7.50;99.90;;;;;;627605;225;26826;-70
2022/01/23 10:49:05;;;;;;;6.93;6.27;;;7.50;99.90;;;;;;632994;225;26592;-69
2022/01/23 10:51:39;;;;;;;7.67;6.47;;;7.80;99.90;;;;;;627140;225;26843;-70
2022/01/23 10:54:07;;;;;;;6.50;5.80;;;8.00;99.90;;;;;;630315;226;26585;-70
2022/01/23 10:56:34;;;;;;;7.60;6.27;;;8.00;99.90;;;;;;627370;225;26903;-70
2022/01/23 10:59:01;;;;;;;6.47;5.83;;;7.90;99.90;;;;;;631855;226;26582;-70
2022/01/23 11:01:29;;;;;;;6.60;6.00;;;7.50;99.90;;;;;;626109;225;26839;-70
2022/01/23 11:04:03;;;;;;;6.67;5.90;;;7.40;99.90;;;;;;631640;225;26609;-70
2022/01/23 11:06:31;;;;;;;7.37;6.53;;;7.40;99.90;;;;;;632684;225;26854;-70
2022/01/23 11:09:08;;;;;;;7.93;6.40;;;7.80;99.90;;;;;;633625;225;26605;-70
2022/01/23 11:11:44;;;;;;;6.70;5.10;;;7.60;99.90;;;;;;628253;223;26576;-69
2022/01/23 11:19:18;;;;;;;15.33;12.73;;;7.40;99.90;;;;;;630740;225;26502;-67
2022/01/23 11:21:45;;;;;;;6.20;5.50;;;7.50;99.90;;;;;;629228;222;26899;-67
2022/01/23 11:24:13;;;;;;;8.20;5.40;;;7.90;99.90;;;;;;632624;226;26821;-67
2022/01/23 11:26:40;;;;;;;5.20;4.77;;;8.30;99.90;;;;;;630530;226;26898;-66
2022/01/23 11:29:10;;;;;;;5.90;5.30;;;8.40;99.90;;;;;;632694;226;26600;-66
2022/01/23 11:31:39;;;;;;;5.10;4.67;;;8.40;99.90;;;;;;627700;225;26610;-67
2022/01/23 11:34:06;;;;;;;6.10;5.50;;;8.70;99.90;;;;;;635710;225;26860;-67
2022/01/23 11:36:33;;;;;;;4.47;4.10;;;8.70;99.90;;;;;;626711;228;26827;-67
2022/01/23 11:39:09;;;;;;;4.80;4.30;;;8.60;99.90;;;;;;633930;225;26591;-67
2022/01/23 11:54:21;;;;;;;4.73;4.33;;;8.30;99.90;;;;;;629363;226;26599;-69
2022/01/23 11:56:50;;;;;;;4.67;4.27;;;8.50;99.90;;;;;;628054;226;27314;-71
2022/01/23 11:59:25;;;;;;;5.20;4.17;;;8.50;99.90;;;;;;628859;225;26614;-70
2022/01/23 12:02:14;;;;;;;5.00;4.50;;;9.20;99.90;;;;;;630924;225;26618;-71
2022/01/23 12:04:40;;;;;;;5.17;4.67;;;9.60;99.90;;;;;;627763;226;26861;-69
2022/01/23 12:07:24;;;;;;;5.13;4.63;;;9.40;99.90;;;;;;626197;226;26533;-69
2022/01/23 12:10:04;;;;;;;5.67;4.70;;;8.80;99.90;;;;;;629240;225;26579;-69
2022/01/23 12:12:41;;;;;;;5.60;5.10;;;8.80;99.90;;;;;;631838;225;26585;-69
2022/01/23 12:17:48;;;;;;;4.47;4.07;;;9.20;99.90;;;;;;632847;225;26611;-69
2022/01/23 12:20:16;;;;;;;4.73;3.50;;;8.80;99.90;;;;;;635316;225;26809;-69
2022/01/23 12:22:45;;;;;;;5.57;4.50;;;8.30;99.90;;;;;;630661;225;26633;-69
2022/01/23 12:25:13;;;;;;;4.07;3.77;;;7.80;99.90;;;;;;626889;225;26886;-69
2022/01/23 12:27:40;;;;;;;4.60;4.20;;;7.90;99.90;;;;;;628371;225;26589;-70
2022/01/23 12:30:10;;;;;;;3.90;3.60;;;8.10;99.90;;;;;;627548;228;26765;-69
2022/01/23 12:32:37;;;;;;;3.80;3.50;;;8.00;99.90;;;;;;626825;228;26610;-69
2022/01/23 12:35:05;;;;;;;3.97;3.67;;;8.10;99.90;;;;;;630424;225;26527;-70
2022/01/23 12:37:45;;;;;;;3.50;3.23;;;8.40;99.90;;;;;;635978;225;26584;-69
2022/01/23 12:40:23;;;;;;;3.87;3.57;;;8.40;99.90;;;;;;627291;228;26809;-69
2022/01/23 12:43:14;;;;;;;4.20;3.67;;;8.10;99.90;;;;;;626808;223;26608;-69
2022/01/23 12:45:48;;;;;;;4.10;3.80;;;7.90;99.90;;;;;;628917;225;26775;-69
2022/01/23 12:48:40;;;;;;;3.83;3.53;;;7.80;99.90;;;;;;630233;226;26612;-69
2022/01/23 12:51:07;;;;;;;4.40;4.00;;;7.50;99.90;;;;;;628212;228;26618;-69
2022/01/23 12:54:06;;;;;;;4.13;3.80;;;7.90;99.90;;;;;;631668;226;26590;-69
2022/01/23 12:56:40;;;;;;;4.60;4.20;;;7.90;99.90;;;;;;621230;227;26555;-69
2022/01/23 12:59:07;;;;;;;5.10;4.10;;;8.20;99.90;;;;;;627853;225;27265;-69
2022/01/23 13:01:30;;;;;;;4.00;3.70;;;8.20;99.90;;;;;;627373;225;26786;-69
2022/01/23 13:03:58;;;;;;;4.03;3.73;;;8.20;99.90;;;;;;626063;229;26524;-69
2022/01/23 13:06:42;;;;;;;3.60;3.30;;;8.20;99.90;;;;;;627348;227;26591;-69
2022/01/23 13:09:21;;;;;;;3.80;3.50;;;8.30;99.90;;;;;;633688;225;26595;-69
2022/01/23 13:12:02;;;;;;;3.57;3.30;;;8.30;99.90;;;;;;628139;226;26602;-69
2022/01/23 13:14:27;;;;;;;4.03;3.60;;;8.10;99.90;;;;;;628904;226;26968;-69
2022/01/23 13:17:14;;;;;;;4.90;4.53;;;8.20;99.90;;;;;;626792;227;26603;-69
2022/01/23 13:19:44;;;;;;;4.00;3.60;;;8.40;99.90;;;;;;624698;225;26611;-69
2022/01/23 13:32:04;;;;;;;4.20;3.90;;;8.50;99.90;;;;;;626543;228;26601;-69
2022/01/23 13:34:36;;;;;;;4.07;3.77;;;8.20;99.90;;;;;;627511;227;26574;-69
2022/01/23 13:37:02;;;;;;;5.17;4.47;;;8.10;99.90;;;;;;627714;225;26923;-69
2022/01/23 13:39:32;;;;;;;4.13;3.83;;;8.40;99.90;;;;;;632107;225;26590;-70
2022/01/23 13:42:20;;;;;;;5.90;4.30;;;8.40;99.90;;;;;;632640;225;26599;-69
2022/01/23 13:52:41;;;;;;;5.73;4.23;;;8.40;99.90;;;;;;629138;226;26620;-70
2022/01/23 13:57:49;;;;;;;3.80;3.50;;;8.80;99.90;;;;;;627635;225;26595;-70
2022/01/23 14:00:14;;;;;;;3.43;3.13;;;8.50;99.90;;;;;;628826;225;26621;-71
2022/01/23 14:02:34;;;;;;;3.70;3.40;;;8.60;99.90;;;;;;625875;226;26603;-72
2022/01/23 14:05:08;;;;;;;3.50;3.20;;;8.60;99.90;;;;;;628390;226;26632;-71
2022/01/23 14:07:35;;;;;;;3.70;3.40;;;8.60;99.90;;;;;;628379;225;26855;-73
2022/01/23 14:10:13;;;;;;;3.70;3.40;;;8.60;99.90;;;;;;628418;225;28822;-71
2022/01/23 14:12:39;;;;;;;4.33;3.80;;;8.60;99.90;;;;;;627255;226;26593;-71
2022/01/23 14:15:16;;;;;;;3.87;3.57;;;7.90;99.90;;;;;;628642;225;26621;-71
2022/01/23 14:17:43;;;;;;;5.10;4.03;;;7.90;99.90;;;;;;632333;226;26892;-71
2022/01/23 14:20:13;;;;;;;4.93;4.53;;;8.10;99.90;;;;;;627943;226;26610;-71
2022/01/23 14:22:41;;;;;;;4.33;4.03;;;8.10;99.90;;;;;;631298;225;26596;-71
2022/01/23 14:25:09;;;;;;;5.30;4.03;;;8.10;99.90;;;;;;626324;229;26808;-71
2022/01/23 14:27:36;;;;;;;5.83;4.43;;;8.40;99.90;;;;;;629182;225;26829;-72
2022/01/23 14:30:06;;;;;;;3.57;3.27;;;8.30;99.90;;;;;;632641;225;26643;-70
2022/01/23 14:32:40;;;;;;;3.90;3.50;;;8.40;99.90;;;;;;628296;225;26626;-70
2022/01/23 14:35:03;;;;;;;3.70;3.40;;;8.30;99.90;;;;;;627263;229;26592;-70
2022/01/23 14:37:31;;;;;;;4.10;3.80;;;8.40;99.90;;;;;;633578;225;26740;-70
2022/01/23 14:40:16;;;;;;;4.20;3.43;;;8.20;99.90;;;;;;627603;227;26873;-70
2022/01/23 14:42:55;;;;;;;3.60;3.30;;;8.10;99.90;;;;;;629643;228;26847;-70
2022/01/23 14:45:22;;;;;;;3.70;3.07;;;7.80;99.90;;;;;;629608;226;26593;-70
2022/01/23 14:47:49;;;;;;;3.70;3.40;;;7.40;99.90;;;;;;628798;228;26586;-70
2022/01/23 14:50:19;;;;;;;2.93;2.73;;;7.20;99.90;;;;;;629200;225;26827;-70
2022/01/23 14:52:45;;;;;;;4.20;3.47;;;7.90;99.90;;;;;;631702;226;26609;-73
2022/01/23 14:55:12;;;;;;;4.47;3.10;;;7.90;99.90;;;;;;627427;225;26636;-74
2022/01/23 14:57:40;;;;;;;3.00;2.80;;;7.90;99.90;;;;;;628934;226;26558;-70
2022/01/23 15:00:08;;;;;;;3.30;3.00;;;7.80;99.90;;;;;;633450;226;26549;-70
2022/01/23 15:02:35;;;;;;;3.43;3.10;;;7.50;99.90;;;;;;630218;226;27260;-70
2022/01/23 15:05:03;;;;;;;3.43;3.13;;;7.70;99.90;;;;;;625977;228;26590;-70
2022/01/23 15:07:35;;;;;;;2.60;2.40;;;7.70;99.90;;;;;;633429;225;26812;-70
2022/01/23 15:10:02;;;;;;;2.10;2.00;;;7.90;99.90;;;;;;627446;226;26626;-70
2022/01/23 15:12:30;;;;;;;2.00;1.90;;;8.10;99.90;;;;;;630983;225;26638;-70
2022/01/23 15:14:58;;;;;;;2.00;1.80;;;7.70;99.90;;;;;;630061;225;26604;-70
2022/01/23 15:17:27;;;;;;;2.40;2.17;;;7.70;99.90;;;;;;627593;226;26826;-70
2022/01/23 15:19:54;;;;;;;2.40;2.30;;;7.80;99.90;;;;;;629022;226;26595;-70
2022/01/23 15:22:23;;;;;;;3.80;2.67;;;8.00;99.90;;;;;;628483;225;26599;-70
2022/01/23 15:24:49;;;;;;;2.70;2.50;;;7.90;99.90;;;;;;629347;225;26633;-70
2022/01/23 15:27:17;;;;;;;3.47;3.10;;;7.80;99.90;;;;;;632660;225;26807;-70
2022/01/23 15:29:44;;;;;;;3.53;3.20;;;7.70;99.90;;;;;;632430;226;26832;-70
2022/01/23 15:32:11;;;;;;;4.77;3.40;;;7.60;99.90;;;;;;629040;225;26061;-70